createdAt,value
2022-07-29T00:01:48.396Z,1.40
2022-07-29T00:04:17.206Z,1.30
2022-07-29T00:06:46.140Z,1.20
2022-07-29T00:09:14.735Z,1.42
2022-07-29T00:11:44.255Z,1.30
2022-07-29T00:14:13.078Z,1.38
2022-07-29T00:16:42.040Z,1.42
2022-07-29T00:19:10.577Z,1.40
2022-07-29T00:21:39.853Z,1.70
2022-07-29T00:24:08.526Z,1.58
2022-07-29T00:26:37.098Z,1.30
2022-07-29T00:29:32.890Z,1.50
2022-07-29T00:31:54.787Z,1.30
2022-07-29T00:34:41.538Z,1.48
2022-07-29T00:37:10.086Z,1.45
2022-07-29T00:39:38.755Z,1.38
2022-07-29T00:42:07.434Z,1.30
2022-07-29T00:44:40.980Z,1.77
2022-07-29T00:47:11.190Z,1.48
2022-07-29T00:49:42.402Z,1.38
2022-07-29T00:52:12.543Z,1.48
2022-07-29T00:54:44.070Z,1.48
2022-07-29T00:59:42.438Z,1.42
2022-07-29T01:02:11.175Z,1.77
2022-07-29T01:04:40.011Z,1.90
2022-07-29T01:07:09.303Z,1.48
2022-07-29T01:09:46.239Z,1.45
2022-07-29T01:12:19.437Z,1.90
2022-07-29T01:14:48.932Z,1.85
2022-07-29T01:17:55.548Z,1.55
2022-07-29T01:20:31.537Z,1.45
2022-07-29T01:23:11.395Z,1.60
2022-07-29T01:26:20.502Z,1.50
2022-07-29T01:29:08.354Z,1.60
2022-07-29T01:32:01.344Z,2.15
2022-07-29T01:34:50.869Z,2.08
2022-07-29T01:37:32.249Z,1.67
2022-07-29T01:40:04.010Z,1.85
2022-07-29T01:42:45.207Z,1.95
2022-07-29T01:45:21.219Z,1.80
2022-07-29T01:47:56.841Z,1.95
2022-07-29T01:50:32.443Z,1.70
2022-07-29T01:53:08.807Z,1.60
2022-07-29T01:55:42.353Z,1.77
2022-07-29T01:58:13.189Z,2.42
2022-07-29T02:00:43.656Z,1.88
2022-07-29T02:03:14.622Z,1.52
2022-07-29T02:05:47.414Z,1.98
2022-07-29T02:08:17.833Z,1.90
2022-07-29T02:10:48.726Z,2.33
2022-07-29T02:13:19.029Z,1.88
2022-07-29T02:15:48.856Z,1.52
2022-07-29T02:18:20.821Z,1.52
2022-07-29T02:20:56.739Z,1.90
2022-07-29T02:23:26.277Z,1.85
2022-07-29T02:25:58.376Z,2.05
2022-07-29T02:28:29.632Z,1.52
2022-07-29T02:31:04.613Z,1.50
2022-07-29T02:33:34.314Z,1.95
2022-07-29T02:36:05.122Z,1.85
2022-07-29T02:38:57.637Z,2.10
2022-07-29T02:41:31.815Z,2.03
2022-07-29T02:44:07.283Z,1.63
2022-07-29T02:46:38.953Z,1.90
2022-07-29T02:49:11.659Z,2.58
2022-07-29T02:51:56.299Z,1.88
2022-07-29T02:54:41.687Z,2.53
2022-07-29T02:57:25.001Z,1.40
2022-07-29T02:59:57.286Z,2.03
2022-07-29T03:02:28.004Z,1.67
2022-07-29T03:05:00.119Z,1.80
2022-07-29T03:07:29.966Z,1.80
2022-07-29T03:10:02.291Z,1.60
2022-07-29T03:12:32.424Z,1.60
2022-07-29T03:15:01.670Z,1.63
2022-07-29T03:17:30.181Z,1.70
2022-07-29T03:19:58.887Z,1.63
2022-07-29T03:22:28.262Z,1.60
2022-07-29T03:24:56.871Z,2.03
2022-07-29T03:27:25.418Z,1.40
2022-07-29T03:29:53.694Z,1.70
2022-07-29T03:32:25.087Z,1.60
2022-07-29T03:34:53.648Z,1.58
2022-07-29T03:37:22.152Z,1.48
2022-07-29T03:39:53.307Z,1.45
2022-07-29T03:42:25.479Z,1.90
2022-07-29T03:44:54.903Z,1.75
2022-07-29T03:47:39.331Z,1.58
2022-07-29T03:50:17.627Z,1.65
2022-07-29T03:52:46.137Z,1.70
2022-07-29T03:55:14.733Z,1.38
2022-07-29T03:57:43.833Z,1.92
2022-07-29T04:00:12.969Z,1.35
2022-07-29T04:02:42.117Z,1.85
2022-07-29T04:05:15.677Z,1.40
2022-07-29T04:07:50.984Z,1.40
2022-07-29T04:10:30.299Z,1.10
2022-07-29T04:13:01.604Z,1.58
2022-07-29T04:15:31.330Z,1.20
2022-07-29T04:18:01.200Z,1.27
2022-07-29T04:20:29.458Z,1.25
2022-07-29T04:22:58.169Z,1.83
2022-07-29T04:25:26.406Z,1.05
2022-07-29T04:28:03.582Z,1.17
2022-07-29T04:30:34.167Z,1.23
2022-07-29T04:33:04.423Z,1.00
2022-07-29T04:35:37.940Z,1.50
2022-07-29T04:38:15.597Z,1.10
2022-07-29T04:40:49.761Z,1.17
2022-07-29T04:43:23.318Z,1.25
2022-07-29T04:45:52.223Z,0.85
2022-07-29T04:48:28.472Z,1.20
2022-07-29T04:50:58.710Z,1.30
2022-07-29T04:53:27.489Z,0.90
2022-07-29T04:55:55.868Z,1.13
2022-07-29T04:58:25.396Z,1.15
2022-07-29T05:00:53.687Z,1.20
2022-07-29T05:03:22.081Z,1.10
2022-07-29T05:05:50.537Z,1.15
2022-07-29T05:08:19.433Z,1.30
2022-07-29T05:10:48.116Z,1.38
2022-07-29T05:13:18.258Z,1.23
2022-07-29T05:15:46.554Z,0.85
2022-07-29T05:18:15.943Z,1.27
2022-07-29T05:20:44.348Z,1.45
2022-07-29T05:23:14.609Z,1.10
2022-07-29T05:25:44.572Z,0.73
2022-07-29T05:28:13.834Z,0.70
2022-07-29T05:30:42.660Z,0.93
2022-07-29T05:33:35.978Z,1.30
2022-07-29T05:36:00.844Z,1.35
2022-07-29T05:38:29.647Z,0.80
2022-07-29T05:41:00.692Z,1.02
2022-07-29T05:43:30.252Z,1.00
2022-07-29T05:45:59.381Z,0.90
2022-07-29T05:48:27.993Z,0.85
2022-07-29T05:50:57.089Z,1.20
2022-07-29T05:53:25.633Z,0.80
2022-07-29T05:55:54.403Z,0.85
2022-07-29T05:58:23.089Z,1.15
2022-07-29T06:00:51.698Z,0.60
2022-07-29T06:03:20.236Z,1.00
2022-07-29T06:05:48.617Z,0.75
2022-07-29T06:08:17.131Z,1.25
2022-07-29T06:10:45.518Z,0.95
2022-07-29T06:13:14.625Z,0.70
2022-07-29T06:15:43.221Z,1.00
2022-07-29T06:18:12.575Z,0.80
2022-07-29T06:20:42.517Z,1.30
2022-07-29T06:23:12.037Z,0.80
2022-07-29T06:25:42.789Z,1.00
2022-07-29T06:28:11.761Z,0.80
2022-07-29T06:30:41.221Z,0.93
2022-07-29T06:33:10.445Z,0.80
2022-07-29T06:35:42.631Z,0.80
2022-07-29T06:38:33.838Z,0.60
2022-07-29T06:41:07.735Z,1.08
2022-07-29T06:43:50.207Z,0.75
2022-07-29T06:46:22.091Z,0.70
2022-07-29T06:48:51.591Z,1.70
2022-07-29T06:51:22.510Z,1.00
2022-07-29T06:53:59.448Z,0.68
2022-07-29T06:56:32.555Z,1.17
2022-07-29T06:59:07.382Z,0.90
2022-07-29T07:01:35.903Z,0.80
2022-07-29T07:04:05.511Z,1.40
2022-07-29T07:06:33.901Z,0.80
2022-07-29T07:09:05.406Z,0.88
2022-07-29T07:11:34.480Z,0.90
2022-07-29T07:14:05.565Z,0.73
2022-07-29T07:16:34.263Z,0.77
2022-07-29T07:19:02.941Z,0.90
2022-07-29T07:21:31.956Z,0.77
2022-07-29T07:24:01.682Z,0.73
2022-07-29T07:26:30.632Z,1.88
2022-07-29T07:28:59.068Z,1.52
2022-07-29T07:31:27.530Z,1.23
2022-07-29T07:33:55.852Z,1.25
2022-07-29T07:36:25.039Z,0.80
2022-07-29T07:38:53.294Z,0.80
2022-07-29T07:41:24.717Z,0.85
2022-07-29T07:43:53.038Z,0.80
2022-07-29T07:46:21.424Z,0.77
2022-07-29T07:48:53.191Z,0.65
2022-07-29T07:51:22.612Z,0.77
2022-07-29T07:53:54.008Z,0.82
2022-07-29T07:56:23.208Z,0.77
2022-07-29T07:58:51.688Z,0.70
2022-07-29T08:01:21.599Z,0.75
2022-07-29T08:03:50.278Z,0.85
2022-07-29T08:06:19.304Z,0.90
2022-07-29T08:08:47.916Z,0.70
2022-07-29T08:11:16.667Z,0.77
2022-07-29T08:13:45.671Z,0.50
2022-07-29T08:16:14.541Z,1.10
2022-07-29T08:18:44.479Z,0.70
2022-07-29T08:21:14.759Z,0.70
2022-07-29T08:23:58.459Z,0.82
2022-07-29T08:26:29.239Z,0.60
2022-07-29T08:28:57.568Z,0.60
2022-07-29T08:31:25.906Z,0.63
2022-07-29T08:33:54.390Z,0.75
2022-07-29T08:36:22.807Z,0.60
2022-07-29T08:38:51.429Z,0.80
2022-07-29T08:41:21.237Z,0.80
2022-07-29T08:43:51.218Z,0.75
2022-07-29T08:46:20.368Z,0.70
2022-07-29T08:48:50.155Z,0.60
2022-07-29T08:51:21.285Z,0.45
2022-07-29T08:53:52.001Z,0.68
2022-07-29T08:56:24.299Z,0.60
2022-07-29T08:58:52.785Z,0.52
2022-07-29T09:01:36.225Z,0.50
2022-07-29T09:04:13.634Z,0.70
2022-07-29T09:06:48.257Z,0.57
2022-07-29T09:09:16.853Z,0.40
2022-07-29T09:11:46.144Z,0.70
2022-07-29T09:14:15.736Z,0.60
2022-07-29T09:16:53.541Z,0.63
2022-07-29T09:19:31.121Z,0.70
2022-07-29T09:22:07.102Z,0.68
2022-07-29T09:24:49.792Z,0.80
2022-07-29T09:27:28.553Z,0.63
2022-07-29T09:30:16.622Z,0.80
2022-07-29T09:33:03.027Z,0.60
2022-07-29T09:35:34.436Z,0.60
2022-07-29T09:38:15.984Z,0.65
2022-07-29T09:40:57.802Z,0.55
2022-07-29T09:43:31.800Z,0.50
2022-07-29T09:46:16.545Z,0.50
2022-07-29T09:48:45.220Z,0.63
2022-07-29T09:51:37.621Z,0.73
2022-07-29T09:54:30.119Z,1.10
2022-07-29T09:59:28.443Z,0.63
2022-07-29T10:01:57.620Z,0.50
2022-07-29T10:04:26.336Z,0.43
2022-07-29T10:07:04.731Z,0.75
2022-07-29T10:09:34.592Z,0.55
2022-07-29T10:12:15.731Z,0.60
2022-07-29T10:14:44.647Z,0.70
2022-07-29T10:17:13.715Z,0.70
2022-07-29T10:19:42.091Z,0.93
2022-07-29T10:22:12.229Z,0.70
2022-07-29T10:24:41.199Z,0.50
2022-07-29T10:27:11.256Z,0.70
2022-07-29T10:29:39.751Z,0.75
2022-07-29T10:32:29.420Z,0.68
2022-07-29T10:35:03.411Z,0.55
2022-07-29T10:37:35.999Z,0.70
2022-07-29T10:40:59.009Z,0.60
2022-07-29T10:43:42.315Z,0.47
2022-07-29T10:46:12.942Z,0.60
2022-07-29T10:49:12.030Z,0.47
2022-07-29T10:51:53.014Z,0.55
2022-07-29T10:54:42.279Z,0.57
2022-07-29T11:00:11.054Z,0.60
2022-07-29T11:02:44.600Z,0.47
2022-07-29T11:05:25.369Z,0.60
2022-07-29T11:08:19.486Z,0.70
2022-07-29T11:10:50.518Z,0.70
2022-07-29T11:13:50.022Z,0.60
2022-07-29T11:16:21.353Z,0.80
2022-07-29T11:19:14.474Z,0.50
2022-07-29T11:22:05.167Z,0.52
2022-07-29T11:24:34.852Z,0.55
2022-07-29T11:27:11.222Z,0.50
2022-07-29T11:30:05.613Z,0.55
2022-07-29T11:32:44.910Z,0.60
2022-07-29T11:38:28.560Z,0.57
2022-07-29T11:41:37.935Z,0.47
2022-07-29T11:44:08.923Z,0.60
2022-07-29T11:46:51.473Z,0.77
2022-07-29T11:49:31.665Z,0.65
2022-07-29T11:52:05.040Z,0.70
2022-07-29T11:54:38.969Z,0.70
2022-07-29T12:00:14.465Z,0.70
2022-07-29T12:02:48.067Z,0.70
2022-07-29T12:05:36.019Z,0.77
2022-07-29T12:07:01.567Z,0.60
2022-07-29T12:07:03.797Z,0.63
2022-07-29T12:08:15.800Z,0.63
2022-07-29T12:10:45.671Z,0.73
2022-07-29T12:13:16.548Z,0.93
2022-07-29T12:15:53.561Z,0.90
2022-07-29T12:18:24.153Z,0.80
2022-07-29T12:21:06.630Z,0.60
2022-07-29T12:23:35.787Z,0.60
2022-07-29T12:26:11.056Z,0.73
2022-07-29T12:28:51.063Z,0.70
2022-07-29T12:31:42.180Z,0.73
2022-07-29T12:34:15.274Z,1.00
2022-07-29T12:36:46.567Z,0.88
2022-07-29T12:41:54.201Z,0.50
2022-07-29T12:44:53.429Z,0.50
2022-07-29T12:47:26.331Z,0.73
2022-07-29T12:50:26.171Z,0.80
2022-07-29T12:52:55.594Z,0.60
2022-07-29T12:55:53.559Z,0.80
2022-07-29T12:58:58.014Z,1.13
2022-07-29T13:23:03.191Z,0.70
2022-07-29T13:26:24.752Z,0.70
2022-07-29T13:28:54.225Z,0.60
2022-07-29T13:31:23.987Z,0.57
2022-07-29T13:33:52.464Z,1.00
2022-07-29T13:36:21.642Z,0.70
2022-07-29T13:47:32.692Z,0.75
2022-07-29T13:50:22.629Z,0.73
2022-07-29T13:52:52.538Z,0.70
2022-07-29T13:55:21.436Z,0.90
2022-07-29T14:02:25.753Z,0.75
2022-07-29T14:05:21.686Z,0.60
2022-07-29T14:11:26.650Z,0.60
2022-07-29T14:14:07.556Z,0.60
2022-07-29T14:16:52.551Z,0.90
2022-07-29T14:19:20.928Z,0.70
2022-07-29T14:24:37.365Z,0.60
2022-07-29T14:25:21.257Z,0.80
2022-07-29T14:27:55.113Z,0.63
2022-07-29T14:30:26.925Z,0.95
2022-07-29T14:32:57.996Z,0.70
2022-07-29T14:35:26.319Z,0.88
2022-07-29T14:37:54.920Z,0.80
2022-07-29T14:40:23.278Z,0.80
2022-07-29T14:42:51.452Z,0.70
2022-07-29T14:45:19.845Z,0.80
2022-07-29T14:47:48.182Z,0.68
2022-07-29T14:50:16.442Z,0.75
2022-07-29T14:52:51.515Z,0.75
2022-07-29T14:55:20.354Z,0.68
2022-07-29T14:57:49.283Z,0.70
2022-07-29T15:00:18.220Z,0.60
2022-07-29T15:03:01.317Z,0.70
2022-07-29T15:05:31.697Z,0.60
2022-07-29T15:08:00.815Z,0.70
2022-07-29T15:10:29.972Z,0.57
2022-07-29T15:12:58.830Z,0.70
2022-07-29T15:15:27.641Z,0.70
2022-07-29T15:17:56.019Z,0.82
2022-07-29T15:20:27.082Z,0.80
2022-07-29T15:22:57.584Z,0.90
2022-07-29T15:25:26.395Z,1.38
2022-07-29T15:28:01.213Z,0.90
2022-07-29T15:30:33.270Z,0.80
2022-07-29T15:33:04.567Z,0.70
2022-07-29T15:35:33.011Z,1.20
2022-07-29T15:38:01.942Z,0.65
2022-07-29T15:40:30.569Z,0.60
2022-07-29T15:43:02.510Z,0.80
2022-07-29T15:45:31.645Z,0.57
2022-07-29T15:48:00.481Z,0.75
2022-07-29T15:50:28.778Z,0.65
2022-07-29T15:52:57.024Z,0.68
2022-07-29T15:55:25.420Z,0.90
2022-07-29T15:57:57.188Z,0.52
2022-07-29T16:00:31.158Z,0.60
2022-07-29T16:03:02.128Z,0.50
2022-07-29T16:05:30.606Z,0.50
2022-07-29T16:08:00.594Z,0.50
2022-07-29T16:10:31.724Z,0.80
2022-07-29T16:15:34.947Z,0.73
2022-07-29T16:18:06.022Z,0.70
2022-07-29T16:20:34.290Z,0.63
2022-07-29T16:23:02.630Z,0.60
2022-07-29T16:25:58.779Z,0.70
2022-07-29T16:28:22.393Z,0.80
2022-07-29T16:30:52.064Z,0.55
2022-07-29T16:33:20.638Z,0.60
2022-07-29T16:35:48.920Z,0.50
2022-07-29T16:38:18.013Z,0.45
2022-07-29T16:40:46.406Z,0.50
2022-07-29T16:43:15.041Z,0.40
2022-07-29T16:45:45.989Z,0.68
2022-07-29T16:48:18.749Z,0.40
2022-07-29T16:50:52.839Z,0.40
2022-07-29T16:53:21.163Z,0.40
2022-07-29T16:55:49.492Z,0.40
2022-07-29T16:58:22.185Z,0.30
2022-07-29T17:00:50.597Z,0.40
2022-07-29T17:03:23.437Z,0.40
2022-07-29T17:05:53.982Z,0.68
2022-07-29T17:08:23.639Z,0.60
2022-07-29T17:10:52.156Z,0.50
2022-07-29T17:13:20.638Z,0.52
2022-07-29T17:16:02.892Z,0.60
2022-07-29T17:18:31.273Z,0.40
2022-07-29T17:21:01.524Z,0.68
2022-07-29T17:23:31.777Z,0.40
2022-07-29T17:26:00.067Z,0.40
2022-07-29T17:28:28.289Z,0.40
2022-07-29T17:30:56.669Z,0.65
2022-07-29T17:33:25.202Z,0.60
2022-07-29T17:36:11.992Z,0.40
2022-07-29T17:38:47.085Z,0.50
2022-07-29T17:41:16.209Z,0.40
2022-07-29T17:43:44.591Z,0.52
2022-07-29T17:46:13.089Z,0.50
2022-07-29T17:48:44.136Z,0.50
2022-07-29T17:53:46.257Z,0.40
2022-07-29T17:56:14.954Z,0.40
2022-07-29T17:58:48.260Z,0.40
2022-07-29T18:01:17.422Z,0.30
2022-07-29T18:03:46.391Z,0.47
2022-07-29T18:06:15.015Z,0.40
2022-07-29T18:08:48.323Z,0.60
2022-07-29T18:11:17.239Z,0.52
2022-07-29T18:13:45.526Z,0.50
2022-07-29T18:16:13.942Z,0.50
2022-07-29T18:18:42.467Z,0.68
2022-07-29T18:21:10.941Z,0.68
2022-07-29T18:23:41.887Z,0.52
2022-07-29T18:26:11.063Z,0.50
2022-07-29T18:28:39.381Z,0.77
2022-07-29T18:31:08.420Z,0.60
2022-07-29T18:33:39.794Z,0.70
2022-07-29T18:36:11.659Z,0.60
2022-07-29T18:38:42.208Z,0.70
2022-07-29T18:41:10.579Z,0.80
2022-07-29T18:43:39.049Z,0.68
2022-07-29T18:46:07.639Z,0.60
2022-07-29T18:48:36.051Z,0.60
2022-07-29T18:51:09.371Z,0.70
2022-07-29T18:53:38.504Z,0.77
2022-07-29T18:56:06.905Z,0.80
2022-07-29T18:58:35.261Z,0.90
2022-07-29T19:01:03.639Z,0.98
2022-07-29T19:03:35.319Z,0.90
2022-07-29T19:06:03.674Z,1.25
2022-07-29T19:08:35.868Z,1.00
2022-07-29T19:11:04.319Z,0.82
2022-07-29T19:13:44.948Z,1.00
2022-07-29T19:16:19.416Z,0.90
2022-07-29T19:18:48.295Z,0.90
2022-07-29T19:21:16.546Z,0.90
2022-07-29T19:24:06.425Z,1.05
2022-07-29T19:26:47.668Z,1.00
2022-07-29T19:29:19.010Z,1.17
2022-07-29T19:31:50.310Z,1.08
2022-07-29T19:34:18.504Z,0.90
2022-07-29T19:36:49.736Z,0.68
2022-07-29T19:39:47.784Z,1.10
2022-07-29T19:45:00.894Z,1.00
2022-07-29T19:50:34.271Z,1.10
2022-07-29T19:54:19.218Z,1.23
2022-07-29T20:02:19.618Z,1.40
2022-07-29T20:04:48.235Z,1.33
2022-07-29T20:17:01.298Z,1.60
2022-07-29T20:20:18.269Z,1.60
2022-07-29T20:25:54.609Z,1.45
2022-07-29T20:29:11.534Z,1.65
2022-07-29T20:36:21.305Z,1.63
2022-07-29T20:38:54.669Z,2.13
2022-07-29T20:41:47.751Z,1.50
2022-07-29T20:44:21.823Z,1.52
2022-07-29T20:46:50.199Z,1.73
2022-07-29T20:49:21.677Z,2.00
2022-07-29T20:51:50.148Z,1.63
2022-07-29T20:57:03.193Z,1.65
2022-07-29T21:02:52.579Z,2.00
2022-07-29T21:05:21.018Z,1.70
2022-07-29T21:07:49.322Z,2.30
2022-07-29T21:10:20.700Z,1.80
2022-07-29T21:12:53.792Z,1.80
2022-07-29T21:15:22.971Z,1.75
2022-07-29T21:17:56.152Z,1.50
2022-07-29T21:20:28.144Z,1.55
2022-07-29T21:23:01.500Z,1.73
2022-07-29T21:29:20.230Z,2.00
2022-07-29T21:32:29.713Z,1.95
2022-07-29T21:36:02.063Z,1.27
2022-07-29T21:38:50.667Z,1.85
2022-07-29T21:41:20.963Z,2.00
2022-07-29T21:44:22.635Z,1.63
2022-07-29T21:47:19.590Z,1.50
2022-07-29T22:27:29.747Z,1.42
